Time;durP1;ratioP1;P1;durP2;ratioP2;P2;SDS_P1;SDS_P2;PMS_P1;PMS_P2;Temp;Humidity;BMP_temperature;BMP_pressure;BME280_temperature;BME280_humidity;BME280_pressure;Samples;Min_cycle;Max_cycle;Signal;HPM_P1;HPM_P2
2022/08/25 00:09:57;;;;;;;4.9;14;;;;;;;18.1;100;98830;;;;
2022/08/25 00:19:57;;;;;;;4.9;14;;;;;;;17.9;100;98830;;;;
2022/08/25 00:30:57;;;;;;;5.1;11.7;;;;;;;17.8;100;98840;;;;
2022/08/25 00:41:57;;;;;;;5.1;11.7;;;;;;;17.6;100;98830;;;;
2022/08/25 00:52:57;;;;;;;4.4;12;;;;;;;17.5;100;98820;;;;
2022/08/25 01:03:57;;;;;;;4.4;12;;;;;;;17.5;100;98820;;;;
2022/08/25 01:14:57;;;;;;;4.4;12;;;;;;;17.5;100;98830;;;;
2022/08/25 01:25:58;;;;;;;6;14.9;;;;;;;17.3;100;98820;;;;
2022/08/25 01:35:57;;;;;;;6;14.9;;;;;;;17.2;100;98810;;;;
2022/08/25 01:46:57;;;;;;;6;14.9;;;;;;;17.2;100;98800;;;;
2022/08/25 01:56:57;;;;;;;4.8;14.5;;;;;;;17.2;100;98800;;;;
2022/08/25 02:07:57;;;;;;;4.8;14.5;;;;;;;17.2;100;98800;;;;
2022/08/25 02:18:58;;;;;;;4.8;14.5;;;;;;;17.2;100;98790;;;;
2022/08/25 02:29:57;;;;;;;6;12.9;;;;;;;17.2;100;98790;;;;
2022/08/25 02:40:57;;;;;;;6;12.9;;;;;;;17.1;100;98790;;;;
2022/08/25 02:51:59;;;;;;;6.9;13.7;;;;;;;17.1;100;98780;;;;
2022/08/25 03:02:57;;;;;;;6.9;13.7;;;;;;;17;100;98780;;;;
2022/08/25 03:12:57;;;;;;;6.9;13.7;;;;;;;17;100;98780;;;;
2022/08/25 03:22:57;;;;;;;5.5;10.3;;;;;;;16.4;100;98770;;;;
2022/08/25 03:33:57;;;;;;;5.5;10.3;;;;;;;16.5;100;98770;;;;
2022/08/25 03:43:57;;;;;;;5.5;10.3;;;;;;;16.6;100;98770;;;;
2022/08/25 03:54:57;;;;;;;5.7;13.3;;;;;;;16.6;100;98770;;;;
2022/08/25 04:05:58;;;;;;;5.7;13.3;;;;;;;16.6;100;98770;;;;
2022/08/25 04:16:57;;;;;;;5.7;13.3;;;;;;;16.8;100;98760;;;;
2022/08/25 04:26:57;;;;;;;6.7;11.7;;;;;;;16.8;100;98770;;;;
2022/08/25 04:37:57;;;;;;;6.7;11.7;;;;;;;17.1;100;98780;;;;
2022/08/25 04:48:57;;;;;;;6.7;11.7;;;;;;;17.5;100;98780;;;;
2022/08/25 04:59:57;;;;;;;6.6;14.6;;;;;;;18;100;98770;;;;
2022/08/25 05:10:57;;;;;;;6.6;14.6;;;;;;;18.5;100;98770;;;;
2022/08/25 05:21:57;;;;;;;6.7;13.4;;;;;;;18.8;100;98770;;;;
2022/08/25 05:32:57;;;;;;;6.7;13.4;;;;;;;19.2;100;98760;;;;
2022/08/25 05:42:57;;;;;;;6.7;13.4;;;;;;;19.6;100;98770;;;;
2022/08/25 05:52:57;;;;;;;6.9;9.1;;;;;;;19.9;100;98770;;;;
2022/08/25 06:03:58;;;;;;;6.9;9.1;;;;;;;20.3;100;98770;;;;
2022/08/25 06:13:57;;;;;;;6.9;9.1;;;;;;;20.5;100;98770;;;;
2022/08/25 06:23:57;;;;;;;6.6;16.2;;;;;;;21;100;98770;;;;
2022/08/25 06:34:57;;;;;;;6.6;16.2;;;;;;;21.2;100;98790;;;;
2022/08/25 06:44:57;;;;;;;6.6;16.2;;;;;;;21.4;100;98790;;;;
2022/08/25 06:54:57;;;;;;;7.6;15.5;;;;;;;21.7;100;98790;;;;
2022/08/25 07:05:57;;;;;;;7.6;15.5;;;;;;;22.3;100;98790;;;;
2022/08/25 07:15:57;;;;;;;7.6;15.5;;;;;;;22.5;100;98790;;;;
2022/08/25 07:26:58;;;;;;;6.8;20.3;;;;;;;22.7;100;98780;;;;
2022/08/25 07:36:57;;;;;;;6.8;20.3;;;;;;;23.3;100;98790;;;;
2022/08/25 07:46:57;;;;;;;6.8;20.3;;;;;;;23.6;100;98800;;;;
2022/08/25 07:57:58;;;;;;;6.4;16.8;;;;;;;24;100;98790;;;;
2022/08/25 08:07:57;;;;;;;6.4;16.8;;;;;;;24.1;100;98790;;;;
2022/08/25 08:17:57;;;;;;;6.4;16.8;;;;;;;24.4;100;98780;;;;
2022/08/25 08:28:57;;;;;;;7.8;16.6;;;;;;;24.9;100;98780;;;;
2022/08/25 08:40:00;;;;;;;7.8;16.6;;;;;;;24.5;100;98780;;;;
2022/08/25 08:50:57;;;;;;;7.9;19.8;;;;;;;24.9;100;98780;;;;
2022/08/25 09:00:57;;;;;;;7.9;19.8;;;;;;;25;100;98780;;;;
2022/08/25 09:10:57;;;;;;;7.9;19.8;;;;;;;25.5;100;98780;;;;
2022/08/25 09:20:57;;;;;;;8.1;20.7;;;;;;;24.9;100;98770;;;;
2022/08/25 09:31:57;;;;;;;8.1;20.7;;;;;;;25.6;100;98770;;;;
2022/08/25 09:42:57;;;;;;;8.1;20.7;;;;;;;26;100;98760;;;;
2022/08/25 09:53:57;;;;;;;9.7;19.5;;;;;;;26.3;100;98760;;;;
2022/08/25 10:03:57;;;;;;;9.7;19.5;;;;;;;26.2;100;98750;;;;
2022/08/25 10:14:57;;;;;;;9.7;19.5;;;;;;;26.3;100;98740;;;;
2022/08/25 10:25:57;;;;;;;9.3;24;;;;;;;27.2;100;98730;;;;
2022/08/25 10:35:57;;;;;;;9.3;24;;;;;;;27.4;100;98720;;;;
2022/08/25 10:45:57;;;;;;;9.3;24;;;;;;;27.8;100;98720;;;;
2022/08/25 10:55:57;;;;;;;9;22.4;;;;;;;27.7;100;98700;;;;
2022/08/25 11:06:58;;;;;;;9;22.4;;;;;;;27.8;100;98690;;;;
2022/08/25 11:17:57;;;;;;;9;22.4;;;;;;;27.8;100;98680;;;;
2022/08/25 11:28:57;;;;;;;8.7;21.6;;;;;;;28;100;98670;;;;
2022/08/25 11:39:57;;;;;;;8.7;21.6;;;;;;;27.4;100;98660;;;;
2022/08/25 11:50:57;;;;;;;8.7;21.6;;;;;;;27.8;100;98670;;;;
2022/08/25 12:00:57;;;;;;;7.6;24.7;;;;;;;28.4;100;98660;;;;
2022/08/25 12:11:58;;;;;;;7.6;24.7;;;;;;;28.2;100;98650;;;;
2022/08/25 12:21:57;;;;;;;6.6;18.4;;;;;;;28.2;100;98640;;;;
2022/08/25 12:32:57;;;;;;;6.6;18.4;;;;;;;28.4;100;98630;;;;
2022/08/25 12:42:57;;;;;;;6.6;18.4;;;;;;;28.2;100;98630;;;;
2022/08/25 12:52:57;;;;;;;7;18.1;;;;;;;28.8;100;98610;;;;
2022/08/25 13:02:57;;;;;;;7;18.1;;;;;;;28.9;100;98600;;;;
2022/08/25 13:13:57;;;;;;;7;18.1;;;;;;;28.9;100;98610;;;;
2022/08/25 13:23:57;;;;;;;6.3;15.2;;;;;;;29.1;100;98600;;;;
2022/08/25 13:33:57;;;;;;;6.3;15.2;;;;;;;29.1;100;98600;;;;
2022/08/25 13:44:57;;;;;;;6.3;15.2;;;;;;;28.9;100;98590;;;;
2022/08/25 13:54:57;;;;;;;7.3;20.3;;;;;;;29.5;100;98590;;;;
2022/08/25 14:05:58;;;;;;;7.3;20.3;;;;;;;29.5;100;98580;;;;
2022/08/25 14:16:57;;;;;;;7.3;20.3;;;;;;;29.9;100;98570;;;;
2022/08/25 14:26:57;;;;;;;8.1;18.6;;;;;;;30.2;100;98570;;;;
2022/08/25 14:37:57;;;;;;;8.1;18.6;;;;;;;30;100;98560;;;;
2022/08/25 14:47:57;;;;;;;8.1;18.6;;;;;;;30.3;100;98550;;;;
2022/08/25 14:57:57;;;;;;;7.8;22.5;;;;;;;30.9;97.9;98550;;;;
2022/08/25 15:09:15;;;;;;;7.8;22.5;;;;;;;31.2;96.2;98550;;;;
2022/08/25 15:19:57;;;;;;;7.8;22.5;;;;;;;32;88;98560;;;;
2022/08/25 15:30:58;;;;;;;6.7;16.4;;;;;;;32.6;87.4;98560;;;;
2022/08/25 15:41:57;;;;;;;6.7;16.4;;;;;;;33.3;84.8;98560;;;;
2022/08/25 15:52:57;;;;;;;12.6;26.2;;;;;;;33.3;80.2;98540;;;;
2022/08/25 16:02:57;;;;;;;12.6;26.2;;;;;;;32.9;80;98530;;;;
2022/08/25 16:13:57;;;;;;;12.6;26.2;;;;;;;33.2;79.1;98530;;;;
2022/08/25 16:24:57;;;;;;;9.5;22.2;;;;;;;32.9;80.6;98520;;;;
2022/08/25 16:35:57;;;;;;;9.5;22.2;;;;;;;32.9;80.4;98530;;;;
2022/08/25 16:45:57;;;;;;;9.5;22.2;;;;;;;31.4;89.9;98530;;;;
2022/08/25 16:55:57;;;;;;;9;22.8;;;;;;;30.3;93.9;98530;;;;
2022/08/25 17:06:57;;;;;;;9;22.8;;;;;;;29.2;100;98530;;;;
2022/08/25 17:16:57;;;;;;;9;22.8;;;;;;;28.3;100;98520;;;;
2022/08/25 17:27:58;;;;;;;12.8;28.2;;;;;;;27.4;100;98510;;;;
2022/08/25 17:38:57;;;;;;;12.8;28.2;;;;;;;26.6;100;98510;;;;
2022/08/25 17:48:57;;;;;;;12.8;28.2;;;;;;;25.9;100;98510;;;;
2022/08/25 17:59:58;;;;;;;9.9;26.8;;;;;;;25.3;100;98510;;;;
2022/08/25 18:09:57;;;;;;;9.9;26.8;;;;;;;24.8;100;98510;;;;
2022/08/25 18:20:57;;;;;;;9.9;26.8;;;;;;;24.4;100;98520;;;;
2022/08/25 18:31:57;;;;;;;12.1;23.4;;;;;;;23.8;100;98520;;;;
2022/08/25 18:41:58;;;;;;;12.1;23.4;;;;;;;23.5;100;98520;;;;
2022/08/25 18:52:58;;;;;;;18.8;31.8;;;;;;;23.2;100;98510;;;;
2022/08/25 19:03:57;;;;;;;18.8;31.8;;;;;;;22.9;100;98510;;;;
2022/08/25 19:13:58;;;;;;;18.8;31.8;;;;;;;22.6;100;98510;;;;
2022/08/25 19:24:57;;;;;;;11.5;21.9;;;;;;;22.2;100;98510;;;;
2022/08/25 19:35:57;;;;;;;11.5;21.9;;;;;;;21.9;100;98510;;;;
2022/08/25 19:45:58;;;;;;;11.5;21.9;;;;;;;21.5;100;98500;;;;
2022/08/25 19:56:58;;;;;;;11.7;20.4;;;;;;;21.2;100;98500;;;;
2022/08/25 20:07:57;;;;;;;11.7;20.4;;;;;;;21;100;98510;;;;
2022/08/25 20:18:59;;;;;;;11.7;20.4;;;;;;;20.8;100;98500;;;;
2022/08/25 20:29:58;;;;;;;11.2;26.3;;;;;;;20.5;100;98510;;;;
2022/08/25 20:40:57;;;;;;;11.2;26.3;;;;;;;20.3;100;98510;;;;
2022/08/25 20:50:57;;;;;;;11.2;26.3;;;;;;;20.1;100;98520;;;;
2022/08/25 21:00:57;;;;;;;9.8;19.1;;;;;;;19.9;100;98520;;;;
2022/08/25 21:11:57;;;;;;;9.8;19.1;;;;;;;19.6;100;98510;;;;
2022/08/25 21:21:57;;;;;;;9.8;19.1;;;;;;;19.5;100;98510;;;;
2022/08/25 21:32:57;;;;;;;10.5;18.2;;;;;;;19.5;100;98510;;;;
2022/08/25 21:42:57;;;;;;;10.5;18.2;;;;;;;19.4;100;98510;;;;
2022/08/25 21:52:57;;;;;;;10.5;19.3;;;;;;;18.9;100;98500;;;;
2022/08/25 22:03:57;;;;;;;10.5;19.3;;;;;;;18.8;100;98490;;;;
2022/08/25 22:13:57;;;;;;;10.5;19.3;;;;;;;18.7;100;98490;;;;
2022/08/25 22:24:57;;;;;;;11.3;19.5;;;;;;;18.5;100;98490;;;;
2022/08/25 22:34:57;;;;;;;11.3;19.5;;;;;;;18.4;100;98490;;;;
2022/08/25 22:45:58;;;;;;;11.3;19.5;;;;;;;18.2;100;98490;;;;
2022/08/25 22:56:57;;;;;;;11.8;16.8;;;;;;;18.2;100;98480;;;;
2022/08/25 23:06:57;;;;;;;11.8;16.8;;;;;;;18;100;98480;;;;
2022/08/25 23:17:57;;;;;;;11.8;16.8;;;;;;;17.9;100;98460;;;;
2022/08/25 23:27:58;;;;;;;11.8;17.1;;;;;;;17.7;100;98460;;;;
2022/08/25 23:38:57;;;;;;;11.8;17.1;;;;;;;17.6;100;98450;;;;
2022/08/25 23:48:58;;;;;;;11.8;17.1;;;;;;;17.5;100;98450;;;;
2022/08/25 23:59:57;;;;;;;10.9;20.9;;;;;;;17.4;100;98450;;;;
